createdAt,value
2017-05-22T00:05:13.008Z,1.30
2017-05-22T00:07:38.845Z,1.20
2017-05-22T00:10:04.752Z,1.14
2017-05-22T00:12:30.613Z,1.14
2017-05-22T00:14:57.230Z,1.40
2017-05-22T00:26:12.530Z,1.16
2017-05-22T00:28:38.387Z,1.24
2017-05-22T00:31:04.253Z,1.40
2017-05-22T00:45:15.987Z,1.24
2017-05-22T00:53:40.747Z,1.22
2017-05-22T00:56:06.909Z,1.46
2017-05-22T00:58:32.787Z,1.20
2017-05-22T01:00:58.629Z,1.14
2017-05-22T01:06:21.025Z,1.36
2017-05-22T01:08:46.964Z,1.20
2017-05-22T01:11:12.814Z,1.30
2017-05-22T01:13:38.669Z,1.28
2017-05-22T01:16:04.542Z,1.32
2017-05-22T01:27:19.931Z,1.64
2017-05-22T01:29:45.774Z,1.20
2017-05-22T01:46:53.953Z,1.14
2017-05-22T02:06:59.341Z,1.40
2017-05-22T02:09:25.238Z,1.10
2017-05-22T02:11:51.068Z,1.36
2017-05-22T02:14:17.018Z,1.20
2017-05-22T02:16:42.874Z,1.20
2017-05-22T02:27:58.479Z,1.34
2017-05-22T02:30:24.358Z,1.38
2017-05-22T02:44:42.705Z,1.36
2017-05-22T02:47:08.542Z,1.30
2017-05-22T03:07:13.386Z,1.30
2017-05-22T03:09:39.254Z,1.50
2017-05-22T03:12:05.082Z,1.18
2017-05-22T03:14:30.930Z,1.30
2017-05-22T03:16:56.835Z,1.30
2017-05-22T03:28:14.642Z,1.16
2017-05-22T03:30:41.345Z,1.20
2017-05-22T03:47:50.934Z,1.26
2017-05-22T04:07:55.767Z,1.50
2017-05-22T04:10:21.609Z,1.40
2017-05-22T04:12:47.527Z,1.30
2017-05-22T04:15:13.369Z,1.40
2017-05-22T04:17:39.392Z,1.56
2017-05-22T04:28:55.681Z,1.32
2017-05-22T04:31:21.548Z,1.30
2017-05-22T04:42:44.119Z,1.40
2017-05-22T04:45:10.046Z,2.04
2017-05-22T04:47:36.279Z,3.06
2017-05-22T04:50:02.043Z,3.08
2017-05-22T04:52:27.898Z,3.16
2017-05-22T04:54:53.748Z,3.10
2017-05-22T04:57:19.695Z,3.02
2017-05-22T04:59:45.542Z,3.80
2017-05-22T05:02:11.382Z,4.74
2017-05-22T05:04:43.007Z,3.40
2017-05-22T05:07:08.856Z,3.76
2017-05-22T05:09:34.749Z,4.38
2017-05-22T05:12:00.618Z,3.90
2017-05-22T05:14:26.462Z,3.74
2017-05-22T05:16:52.343Z,3.92
2017-05-22T05:28:36.481Z,6.86
2017-05-22T05:31:02.401Z,7.04
2017-05-22T05:33:28.858Z,6.16
2017-05-22T05:47:40.883Z,4.84
2017-05-22T06:07:47.313Z,5.52
2017-05-22T06:10:14.014Z,5.22
2017-05-22T06:12:39.984Z,5.58
2017-05-22T06:15:05.983Z,5.30
2017-05-22T06:17:31.865Z,6.88
2017-05-22T06:28:47.139Z,6.30
2017-05-22T06:31:12.986Z,5.30
2017-05-22T06:33:38.887Z,6.18
2017-05-22T06:47:50.724Z,3.52
2017-05-22T07:07:55.435Z,3.26
2017-05-22T07:10:21.277Z,2.46
2017-05-22T07:12:47.137Z,2.42
2017-05-22T07:15:13.024Z,2.68
2017-05-22T07:17:38.920Z,2.50
2017-05-22T07:28:56.916Z,2.56
2017-05-22T07:31:23.535Z,2.40
2017-05-22T07:33:49.362Z,2.32
2017-05-22T07:48:03.035Z,2.24
2017-05-22T08:08:07.513Z,2.12
2017-05-22T08:10:33.350Z,2.10
2017-05-22T08:12:59.209Z,2.58
2017-05-22T08:15:25.077Z,2.32
2017-05-22T08:17:50.932Z,2.00
2017-05-22T08:29:06.346Z,1.96
2017-05-22T08:31:32.193Z,2.00
2017-05-22T08:33:58.163Z,1.94
2017-05-22T08:48:11.293Z,1.72
2017-05-22T09:08:16.206Z,2.06
2017-05-22T09:10:42.045Z,1.86
2017-05-22T09:13:07.894Z,2.38
2017-05-22T09:15:33.750Z,2.06
2017-05-22T09:17:59.634Z,1.76
2017-05-22T09:29:14.958Z,1.84
2017-05-22T09:31:41.555Z,1.76
2017-05-22T09:34:07.399Z,1.98
2017-05-22T09:48:20.572Z,1.74
2017-05-22T09:53:49.347Z,1.80
2017-05-22T09:56:16.010Z,1.86
2017-05-22T09:58:41.857Z,1.54
2017-05-22T10:01:07.710Z,1.76
2017-05-22T10:03:34.336Z,1.78
2017-05-22T10:08:57.085Z,1.58
2017-05-22T10:11:22.949Z,1.76
2017-05-22T10:13:48.929Z,1.80
2017-05-22T10:16:14.781Z,1.70
2017-05-22T10:18:41.417Z,1.92
2017-05-22T10:29:58.578Z,1.76
2017-05-22T10:32:24.497Z,1.50
2017-05-22T10:40:49.125Z,1.58
2017-05-22T10:43:15.076Z,1.60
2017-05-22T10:45:41.000Z,1.44
2017-05-22T10:48:06.835Z,1.78
2017-05-22T10:50:32.690Z,1.70
2017-05-22T10:52:58.543Z,1.60
2017-05-22T10:55:24.427Z,1.86
2017-05-22T10:57:50.273Z,1.92
2017-05-22T11:00:16.129Z,1.40
2017-05-22T11:02:42.021Z,1.94
2017-05-22T11:11:00.850Z,1.68
2017-05-22T11:13:26.701Z,1.50
2017-05-22T11:15:52.553Z,1.64
2017-05-22T11:18:18.507Z,1.94
2017-05-22T11:23:46.778Z,1.50
2017-05-22T11:26:12.621Z,1.40
2017-05-22T11:28:38.511Z,1.64
2017-05-22T11:31:04.423Z,1.40
2017-05-22T11:33:30.268Z,1.42
2017-05-22T11:47:47.916Z,1.44
2017-05-22T11:50:13.831Z,1.50
2017-05-22T11:52:39.689Z,1.40
2017-05-22T11:55:05.557Z,1.30
2017-05-22T11:57:31.483Z,1.60
2017-05-22T11:59:57.446Z,1.64
2017-05-22T12:02:23.304Z,1.62
2017-05-22T12:04:49.190Z,1.30
2017-05-22T12:10:11.558Z,1.38
2017-05-22T12:12:37.413Z,1.70
2017-05-22T12:15:03.253Z,1.46
2017-05-22T12:17:29.209Z,1.22
2017-05-22T12:19:55.062Z,1.54
2017-05-22T12:31:12.431Z,1.30
2017-05-22T12:33:38.304Z,1.30
2017-05-22T12:50:50.590Z,1.40
2017-05-22T12:53:16.420Z,1.26
2017-05-22T12:55:42.292Z,1.74
2017-05-22T12:58:08.322Z,1.40
2017-05-22T13:00:34.205Z,1.40
2017-05-22T13:03:00.034Z,1.30
2017-05-22T13:11:18.811Z,1.64
2017-05-22T13:13:45.403Z,1.20
2017-05-22T13:16:11.337Z,1.48
2017-05-22T13:18:37.195Z,1.50
2017-05-22T13:30:17.192Z,2.46
2017-05-22T13:32:44.139Z,2.16
2017-05-22T13:35:10.768Z,2.14
2017-05-22T13:49:24.882Z,2.66
2017-05-22T13:54:53.298Z,2.32
2017-05-22T13:57:19.181Z,2.30
2017-05-22T13:59:45.225Z,2.14
2017-05-22T14:02:11.113Z,2.44
2017-05-22T14:04:37.009Z,2.48
2017-05-22T14:09:59.500Z,2.24
2017-05-22T14:12:25.530Z,2.42
2017-05-22T14:14:51.382Z,2.10
2017-05-22T14:17:17.248Z,2.20
2017-05-22T14:19:43.355Z,2.06
2017-05-22T14:30:58.576Z,1.88
2017-05-22T14:33:24.439Z,1.86
2017-05-22T14:38:52.503Z,2.10
2017-05-22T14:41:18.420Z,1.88
2017-05-22T14:43:45.039Z,1.90
2017-05-22T14:46:10.919Z,1.86
2017-05-22T14:48:36.771Z,1.84
2017-05-22T14:51:02.640Z,1.90
2017-05-22T14:53:28.545Z,1.74
2017-05-22T14:55:54.382Z,1.80
2017-05-22T14:58:20.391Z,1.78
2017-05-22T15:00:46.234Z,2.14
2017-05-22T15:03:12.092Z,2.20
2017-05-22T15:05:38.066Z,2.34
2017-05-22T15:11:00.536Z,1.72
2017-05-22T15:13:26.383Z,1.68
2017-05-22T15:15:52.227Z,2.00
2017-05-22T15:18:18.098Z,1.72
2017-05-22T15:20:43.976Z,1.74
2017-05-22T15:31:59.468Z,2.04
2017-05-22T15:34:25.310Z,1.58
2017-05-22T15:39:53.477Z,1.88
2017-05-22T15:42:19.317Z,1.96
2017-05-22T15:44:45.158Z,1.80
2017-05-22T15:47:11.133Z,1.84
2017-05-22T15:49:37.029Z,1.54
2017-05-22T15:52:02.874Z,1.64
2017-05-22T15:54:28.728Z,1.62
2017-05-22T15:56:54.567Z,1.58
2017-05-22T15:59:20.410Z,1.56
2017-05-22T16:01:47.169Z,1.36
2017-05-22T16:04:13.033Z,1.70
2017-05-22T16:12:31.919Z,1.52
2017-05-22T16:14:57.766Z,1.58
2017-05-22T16:17:23.620Z,1.80
2017-05-22T16:19:49.466Z,1.74
2017-05-22T16:31:33.871Z,1.60
2017-05-22T16:34:00.011Z,1.86
2017-05-22T16:51:08.398Z,1.62
2017-05-22T16:53:34.279Z,1.70
2017-05-22T16:56:00.138Z,1.56
2017-05-22T16:58:26.487Z,1.86
2017-05-22T17:00:52.333Z,1.70
2017-05-22T17:03:18.358Z,1.58
2017-05-22T17:05:44.260Z,1.88
2017-05-22T17:11:06.696Z,1.82
2017-05-22T17:13:32.560Z,1.62
2017-05-22T17:15:58.396Z,1.64
2017-05-22T17:18:24.532Z,1.68
2017-05-22T17:20:50.385Z,1.76
2017-05-22T17:32:05.986Z,1.90
2017-05-22T17:34:31.879Z,1.88
2017-05-22T17:45:53.735Z,3.16
2017-05-22T17:48:19.662Z,4.04
2017-05-22T17:50:45.513Z,3.32
2017-05-22T17:53:11.386Z,3.18
2017-05-22T17:55:37.235Z,3.42
2017-05-22T17:58:03.081Z,2.96
2017-05-22T18:00:28.943Z,2.94
2017-05-22T18:02:54.774Z,2.54
2017-05-22T18:05:20.713Z,2.60
2017-05-22T18:07:52.470Z,2.82
2017-05-22T18:10:18.347Z,2.46
2017-05-22T18:12:44.199Z,2.58
2017-05-22T18:15:10.065Z,2.66
2017-05-22T18:17:35.988Z,2.38
2017-05-22T18:20:01.883Z,2.12
2017-05-22T18:31:44.878Z,2.42
2017-05-22T18:34:10.828Z,2.24
2017-05-22T18:51:20.078Z,2.04
2017-05-22T18:53:51.783Z,2.20
2017-05-22T18:56:17.657Z,2.24
2017-05-22T18:58:43.711Z,2.32
2017-05-22T19:01:10.303Z,2.70
2017-05-22T19:03:36.442Z,2.10
2017-05-22T19:06:02.543Z,2.38
2017-05-22T19:11:24.959Z,2.12
2017-05-22T19:13:50.808Z,2.16
2017-05-22T19:16:16.731Z,2.40
2017-05-22T19:18:42.590Z,2.12
2017-05-22T19:21:28.968Z,2.82
2017-05-22T19:32:48.296Z,2.24
2017-05-22T19:35:14.166Z,2.62
2017-05-22T19:52:22.398Z,2.30
2017-05-22T19:54:48.421Z,2.46
2017-05-22T19:57:14.351Z,2.04
2017-05-22T19:59:40.230Z,2.42
2017-05-22T20:02:06.060Z,2.40
2017-05-22T20:04:32.038Z,2.34
2017-05-22T20:06:57.950Z,1.84
2017-05-22T20:12:20.398Z,1.76
2017-05-22T20:17:21.339Z,2.17
2017-05-22T20:19:47.263Z,2.18
2017-05-22T20:22:13.137Z,2.38
2017-05-22T20:24:39.022Z,2.00
2017-05-22T20:27:05.259Z,2.10
2017-05-22T20:29:31.217Z,1.88
2017-05-22T20:31:57.134Z,1.90
2017-05-22T20:34:23.028Z,2.14
2017-05-22T20:36:48.910Z,2.00
2017-05-22T20:39:14.878Z,1.70
2017-05-22T20:41:40.957Z,1.90
2017-05-22T20:44:06.880Z,1.84
2017-05-22T20:46:32.807Z,2.22
2017-05-22T20:48:58.731Z,2.30
2017-05-22T20:51:24.628Z,2.80
2017-05-22T20:53:50.652Z,2.30
2017-05-22T20:56:16.546Z,2.92
2017-05-22T20:58:42.386Z,3.00
2017-05-22T21:01:08.228Z,2.32
2017-05-22T21:03:34.066Z,2.76
2017-05-22T21:05:59.929Z,2.36
2017-05-22T21:08:25.805Z,2.74
2017-05-22T21:10:51.759Z,2.70
2017-05-22T21:13:17.631Z,2.44
2017-05-22T21:15:43.474Z,2.50
2017-05-22T21:18:09.320Z,3.00
2017-05-22T21:20:35.173Z,3.00
2017-05-22T21:23:01.233Z,2.48
2017-05-22T21:25:27.086Z,2.60
2017-05-22T21:27:52.946Z,3.12
2017-05-22T21:30:18.835Z,2.64
2017-05-22T21:32:44.690Z,2.80
2017-05-22T21:35:11.282Z,2.40
2017-05-22T21:37:37.123Z,2.30
2017-05-22T21:40:03.124Z,2.28
2017-05-22T21:42:28.982Z,2.54
2017-05-22T21:44:54.879Z,2.32
2017-05-22T21:47:20.737Z,2.54
2017-05-22T21:49:46.582Z,2.34
2017-05-22T21:52:12.515Z,2.62
2017-05-22T21:54:38.362Z,2.52
2017-05-22T21:57:04.217Z,2.06
2017-05-22T21:59:30.067Z,2.00
2017-05-22T22:01:55.955Z,2.14
2017-05-22T22:04:21.995Z,2.22
2017-05-22T22:06:47.857Z,2.28
2017-05-22T22:09:13.713Z,2.40
2017-05-22T22:11:39.570Z,2.10
2017-05-22T22:14:05.423Z,2.34
2017-05-22T22:16:31.267Z,2.10
2017-05-22T22:18:57.119Z,2.06
2017-05-22T22:21:23.069Z,2.22
2017-05-22T22:23:49.725Z,2.44
2017-05-22T22:26:15.635Z,2.02
2017-05-22T22:28:41.477Z,1.74
2017-05-22T22:31:07.327Z,2.36
2017-05-22T22:33:33.260Z,2.24
2017-05-22T22:35:59.101Z,2.10
2017-05-22T22:38:24.978Z,2.30
2017-05-22T22:40:50.817Z,2.30
2017-05-22T22:43:16.704Z,2.02
2017-05-22T22:45:42.543Z,2.18
2017-05-22T22:48:08.443Z,2.24
2017-05-22T22:50:34.294Z,2.10
2017-05-22T22:53:00.133Z,2.52
2017-05-22T22:55:26.014Z,2.02
2017-05-22T22:57:52.634Z,2.30
2017-05-22T23:00:18.491Z,1.92
2017-05-22T23:02:45.177Z,2.10
2017-05-22T23:05:11.073Z,2.22
2017-05-22T23:07:36.950Z,1.94
2017-05-22T23:10:02.787Z,2.14
2017-05-22T23:12:29.438Z,2.28
2017-05-22T23:14:55.406Z,2.24
2017-05-22T23:17:21.233Z,1.80
2017-05-22T23:19:47.112Z,2.00
2017-05-22T23:22:13.088Z,2.02
2017-05-22T23:24:38.920Z,1.90
2017-05-22T23:27:05.528Z,2.22
2017-05-22T23:29:31.369Z,1.82
2017-05-22T23:31:57.305Z,1.82
2017-05-22T23:34:23.177Z,1.80
2017-05-22T23:36:49.055Z,2.18
2017-05-22T23:39:14.902Z,1.96
2017-05-22T23:41:40.753Z,1.88
2017-05-22T23:44:06.672Z,2.16
2017-05-22T23:46:32.552Z,1.84
2017-05-22T23:48:58.459Z,2.20
2017-05-22T23:51:24.315Z,2.00
2017-05-22T23:53:50.198Z,2.14
2017-05-22T23:56:16.165Z,2.30
2017-05-22T23:58:41.999Z,1.90
